Time;durP1;ratioP1;P1;durP2;ratioP2;P2;SDS_P1;SDS_P2;PMS_P1;PMS_P2;Temp;Humidity;BMP_temperature;BMP_pressure;BME280_temperature;BME280_humidity;BME280_pressure;Samples;Min_cycle;Max_cycle;Signal;HPM_P1;HPM_P2
2022/12/18 00:01:26;;;;;;;2.17;1.30;;;-9.40;99.90;;;;;;5022086;28;20752;-71
2022/12/18 00:03:56;;;;;;;1.13;1.02;;;-9.40;99.90;;;;;;5044615;28;20429;-72
2022/12/18 00:06:25;;;;;;;3.22;1.83;;;-9.50;99.90;;;;;;5044950;28;20870;-71
2022/12/18 00:08:52;;;;;;;6.75;2.00;;;-9.60;99.90;;;;;;5038651;28;20435;-71
2022/12/18 00:11:22;;;;;;;1.05;1.05;;;-9.70;99.90;;;;;;5047575;28;20751;-72
2022/12/18 00:13:51;;;;;;;1.52;1.38;;;-9.70;99.90;;;;;;5027778;28;20431;-71
2022/12/18 00:16:21;;;;;;;10.63;2.15;;;-9.70;99.90;;;;;;5049262;28;20436;-71
2022/12/18 00:18:49;;;;;;;2.43;1.43;;;-9.70;99.90;;;;;;5048187;28;20514;-71
2022/12/18 00:21:17;;;;;;;0.90;0.90;;;-9.80;99.90;;;;;;5027854;28;20439;-71
2022/12/18 00:23:45;;;;;;;9.75;1.17;;;-9.90;99.90;;;;;;5035437;28;20977;-71
2022/12/18 00:26:17;;;;;;;2.60;1.50;;;-9.90;99.90;;;;;;5041188;28;20431;-71
2022/12/18 00:28:44;;;;;;;2.97;1.42;;;-9.90;99.90;;;;;;5045495;28;20434;-71
2022/12/18 00:31:16;;;;;;;3.90;2.55;;;-9.90;99.90;;;;;;5052772;28;20429;-71
2022/12/18 00:33:43;;;;;;;1.80;1.15;;;-9.90;99.90;;;;;;5039406;28;20517;-71
2022/12/18 00:36:17;;;;;;;1.23;1.13;;;-10.00;99.90;;;;;;5064143;28;20843;-70
2022/12/18 00:38:44;;;;;;;1.90;1.52;;;-10.00;99.90;;;;;;5028126;28;20961;-71
2022/12/18 00:41:13;;;;;;;1.20;0.60;;;-10.10;99.90;;;;;;5048125;28;20439;-71
2022/12/18 00:43:40;;;;;;;1.23;1.20;;;-10.10;99.90;;;;;;5046606;28;20427;-71
2022/12/18 00:46:07;;;;;;;2.00;1.40;;;-10.20;99.90;;;;;;5048052;28;20428;-71
2022/12/18 00:48:36;;;;;;;2.15;1.73;;;-10.30;99.90;;;;;;5044894;28;20436;-71
2022/12/18 00:51:03;;;;;;;0.90;0.90;;;-10.30;99.90;;;;;;5048391;28;20854;-71
2022/12/18 00:53:30;;;;;;;1.10;1.00;;;-10.40;99.90;;;;;;5049090;28;20440;-71
2022/12/18 00:55:56;;;;;;;1.27;0.88;;;-10.30;99.90;;;;;;5045244;28;20435;-71
2022/12/18 00:58:23;;;;;;;2.60;1.83;;;-10.30;99.90;;;;;;5043617;28;20434;-71
2022/12/18 01:00:50;;;;;;;1.05;0.80;;;-10.20;99.90;;;;;;5043717;28;20425;-71
2022/12/18 01:03:16;;;;;;;3.70;1.70;;;-10.20;99.90;;;;;;5036445;28;20435;-71
2022/12/18 01:05:43;;;;;;;2.38;0.95;;;-10.20;99.90;;;;;;5019448;28;20444;-71
2022/12/18 01:08:12;;;;;;;2.67;1.45;;;-10.20;99.90;;;;;;5043286;28;20484;-71
2022/12/18 01:10:42;;;;;;;1.60;0.80;;;-10.20;99.90;;;;;;5039104;28;20423;-71
2022/12/18 01:13:08;;;;;;;4.70;0.83;;;-10.30;99.90;;;;;;5042552;28;20565;-71
2022/12/18 01:15:35;;;;;;;4.03;1.95;;;-10.20;99.90;;;;;;5050781;28;20432;-71
2022/12/18 01:18:06;;;;;;;1.70;1.02;;;-10.20;99.90;;;;;;5040345;28;20431;-71
2022/12/18 01:20:33;;;;;;;1.23;0.80;;;-10.30;99.90;;;;;;5041413;28;20473;-71
2022/12/18 01:22:59;;;;;;;1.10;0.68;;;-10.20;99.90;;;;;;5058737;28;20432;-71
2022/12/18 01:25:26;;;;;;;0.70;0.70;;;-10.20;99.90;;;;;;5036752;28;20435;-71
2022/12/18 01:27:53;;;;;;;2.10;1.00;;;-10.20;99.90;;;;;;5038561;28;20426;-71
2022/12/18 01:30:19;;;;;;;2.08;1.00;;;-10.20;99.90;;;;;;5038179;28;20459;-71
2022/12/18 01:32:49;;;;;;;4.00;1.10;;;-10.20;99.90;;;;;;5055688;28;20935;-71
2022/12/18 01:35:16;;;;;;;0.60;0.60;;;-10.00;99.90;;;;;;5053203;28;20864;-71
2022/12/18 01:37:43;;;;;;;3.20;1.63;;;-9.90;99.90;;;;;;5045629;28;20431;-71
2022/12/18 01:40:10;;;;;;;0.70;0.70;;;-10.00;99.90;;;;;;5045621;28;20962;-71
2022/12/18 01:42:37;;;;;;;3.60;1.17;;;-10.00;99.90;;;;;;5035875;28;21141;-71
2022/12/18 01:45:08;;;;;;;1.17;0.95;;;-10.10;99.90;;;;;;5039659;28;20450;-71
2022/12/18 01:47:58;;;;;;;1.43;1.30;;;-10.10;99.90;;;;;;5047228;28;20436;-71
2022/12/18 01:50:41;;;;;;;0.40;0.40;;;-10.10;99.90;;;;;;5059833;28;20524;-71
2022/12/18 01:53:16;;;;;;;2.00;1.30;;;-10.20;99.90;;;;;;5039682;28;21003;-71
2022/12/18 01:55:48;;;;;;;1.00;0.98;;;-10.10;99.90;;;;;;5038788;28;20437;-70
2022/12/18 01:58:19;;;;;;;2.10;1.00;;;-10.10;99.90;;;;;;5039460;28;20436;-71
2022/12/18 02:00:46;;;;;;;1.30;0.95;;;-10.20;99.90;;;;;;5044270;28;21173;-71
2022/12/18 02:03:13;;;;;;;1.92;1.30;;;-10.40;99.90;;;;;;5037585;28;20512;-70
2022/12/18 02:06:06;;;;;;;4.05;1.58;;;-10.60;99.90;;;;;;5038103;28;20433;-71
2022/12/18 02:08:36;;;;;;;0.55;0.55;;;-10.60;99.90;;;;;;5047469;28;20438;-71
2022/12/18 02:11:24;;;;;;;2.00;1.02;;;-10.70;99.90;;;;;;5040253;28;20427;-71
2022/12/18 02:14:06;;;;;;;2.80;1.35;;;-10.70;99.90;;;;;;5041302;28;20902;-71
2022/12/18 02:16:33;;;;;;;2.40;1.30;;;-10.70;99.90;;;;;;5052148;28;20437;-71
2022/12/18 02:19:35;;;;;;;2.83;1.48;;;-10.70;99.90;;;;;;5029897;28;20914;-71
2022/12/18 02:22:16;;;;;;;1.00;0.90;;;-10.70;99.90;;;;;;5013116;28;20438;-71
2022/12/18 02:24:54;;;;;;;4.20;1.95;;;-10.70;99.90;;;;;;5041475;28;20429;-71
2022/12/18 02:27:21;;;;;;;2.90;0.70;;;-10.80;99.90;;;;;;5048157;28;20430;-71
2022/12/18 02:29:52;;;;;;;1.70;0.90;;;-10.70;99.90;;;;;;5043781;28;20971;-71
2022/12/18 02:32:57;;;;;;;3.90;1.58;;;-10.70;99.90;;;;;;5046784;28;20464;-72
2022/12/18 02:35:27;;;;;;;1.80;1.33;;;-10.70;99.90;;;;;;4984161;28;20788;-71
2022/12/18 02:37:58;;;;;;;0.35;0.35;;;-10.70;99.90;;;;;;4987712;28;20535;-71
2022/12/18 02:40:28;;;;;;;1.33;1.00;;;-10.70;99.90;;;;;;4984245;28;20444;-71
2022/12/18 02:42:55;;;;;;;1.20;1.10;;;-10.70;99.90;;;;;;4982420;28;20430;-71
2022/12/18 02:45:22;;;;;;;0.65;0.65;;;-10.80;99.90;;;;;;4983587;28;20431;-71
2022/12/18 02:47:50;;;;;;;2.37;1.73;;;-10.90;99.90;;;;;;4981154;28;20440;-71
2022/12/18 02:50:19;;;;;;;3.05;2.72;;;-10.90;99.90;;;;;;4985498;28;20574;-71
2022/12/18 02:53:05;;;;;;;0.57;0.57;;;-10.90;99.90;;;;;;4983448;28;20461;-71
2022/12/18 02:55:41;;;;;;;0.70;0.70;;;-10.90;99.90;;;;;;4976481;28;20876;-70
2022/12/18 02:58:33;;;;;;;1.45;1.05;;;-10.90;99.90;;;;;;4991678;28;20886;-71
2022/12/18 03:01:32;;;;;;;4.70;0.95;;;-10.90;99.90;;;;;;4992574;28;20434;-71
2022/12/18 03:04:03;;;;;;;0.77;0.77;;;-10.90;99.90;;;;;;4972745;28;21049;-71
2022/12/18 03:06:35;;;;;;;1.25;0.98;;;-10.90;99.90;;;;;;4987381;28;20459;-71
2022/12/18 03:09:07;;;;;;;1.37;1.00;;;-10.80;99.90;;;;;;4962308;28;20531;-71
2022/12/18 03:14:28;;;;;;;1.20;0.88;;;-10.50;99.90;;;;;;5032105;28;20437;-71
2022/12/18 03:17:00;;;;;;;1.90;1.20;;;-10.50;99.90;;;;;;5042687;28;20439;-71
2022/12/18 03:19:32;;;;;;;2.85;0.90;;;-10.50;99.90;;;;;;5043409;28;20457;-71
2022/12/18 03:22:03;;;;;;;2.40;0.80;;;-10.50;99.90;;;;;;5046892;28;20524;-71
2022/12/18 03:24:32;;;;;;;1.00;0.90;;;-10.50;99.90;;;;;;5047530;28;20900;-71
2022/12/18 03:27:02;;;;;;;4.35;2.13;;;-10.50;99.90;;;;;;5023001;28;20432;-71
2022/12/18 03:29:40;;;;;;;0.50;0.50;;;-10.40;99.90;;;;;;5043498;28;20435;-71
2022/12/18 03:32:29;;;;;;;2.00;1.08;;;-10.40;99.90;;;;;;5036523;28;20427;-70
2022/12/18 03:34:59;;;;;;;2.47;1.17;;;-10.50;99.90;;;;;;5038425;28;20973;-70
2022/12/18 03:37:26;;;;;;;0.43;0.43;;;-10.50;99.90;;;;;;5045334;28;20429;-71
2022/12/18 03:39:53;;;;;;;0.90;0.50;;;-10.40;99.90;;;;;;5059997;28;20431;-71
2022/12/18 03:42:39;;;;;;;1.70;1.30;;;-10.30;99.90;;;;;;5031499;28;20430;-71
2022/12/18 03:45:05;;;;;;;0.50;0.50;;;-10.40;99.90;;;;;;5047173;28;20574;-70
2022/12/18 03:47:44;;;;;;;10.90;1.80;;;-10.30;99.90;;;;;;5043786;28;21083;-71
2022/12/18 03:50:22;;;;;;;0.95;0.95;;;-10.30;99.90;;;;;;5044578;28;20514;-71
2022/12/18 03:52:58;;;;;;;3.45;1.48;;;-10.30;99.90;;;;;;5035892;28;21326;-71
2022/12/18 03:55:33;;;;;;;1.27;1.17;;;-10.30;99.90;;;;;;5046410;28;20437;-71
2022/12/18 03:58:05;;;;;;;1.67;1.27;;;-10.30;99.90;;;;;;5044874;28;20479;-71
2022/12/18 04:00:34;;;;;;;0.43;0.35;;;-10.30;99.90;;;;;;5036692;28;20433;-71
2022/12/18 04:03:04;;;;;;;0.73;0.73;;;-10.30;99.90;;;;;;5047634;28;20819;-71
2022/12/18 04:05:34;;;;;;;0.80;0.63;;;-10.20;99.90;;;;;;5035457;28;20429;-70
2022/12/18 04:08:02;;;;;;;1.03;1.03;;;-10.30;99.90;;;;;;5045872;28;20926;-71
2022/12/18 04:10:29;;;;;;;1.20;1.10;;;-10.40;99.90;;;;;;5048035;28;20433;-71
2022/12/18 04:12:57;;;;;;;1.70;0.90;;;-10.40;99.90;;;;;;5051318;28;20453;-70
2022/12/18 04:15:24;;;;;;;1.13;1.08;;;-10.40;99.90;;;;;;5049413;28;20782;-71
2022/12/18 04:17:51;;;;;;;1.75;1.00;;;-10.40;99.90;;;;;;5028414;28;20439;-71
2022/12/18 04:20:20;;;;;;;2.90;1.48;;;-10.50;99.90;;;;;;5036628;28;20429;-70
2022/12/18 04:22:47;;;;;;;4.37;1.73;;;-10.60;99.90;;;;;;5054569;28;20437;-71
2022/12/18 04:25:16;;;;;;;0.90;0.70;;;-10.60;99.90;;;;;;5046949;28;20428;-71
2022/12/18 04:27:46;;;;;;;1.88;0.98;;;-10.60;99.90;;;;;;5049393;28;20441;-70
2022/12/18 04:30:13;;;;;;;1.20;0.80;;;-10.50;99.90;;;;;;5064793;28;20425;-70
2022/12/18 04:32:39;;;;;;;1.45;0.80;;;-10.50;99.90;;;;;;5034437;28;20777;-71
2022/12/18 04:35:10;;;;;;;0.80;0.80;;;-10.60;99.90;;;;;;5045117;28;20421;-70
2022/12/18 04:37:37;;;;;;;0.93;0.60;;;-10.60;99.90;;;;;;5030926;28;20483;-70
2022/12/18 04:40:06;;;;;;;2.40;1.48;;;-10.70;99.90;;;;;;5045444;28;20495;-71
2022/12/18 04:42:33;;;;;;;1.23;1.23;;;-10.70;99.90;;;;;;5035451;28;20513;-71
2022/12/18 04:45:00;;;;;;;3.67;0.90;;;-10.70;99.90;;;;;;5038054;28;20425;-70
2022/12/18 04:47:26;;;;;;;1.87;1.23;;;-10.60;99.90;;;;;;5040945;28;20424;-71
2022/12/18 04:49:53;;;;;;;1.65;1.45;;;-10.50;99.90;;;;;;5046787;28;20440;-70
2022/12/18 04:52:20;;;;;;;3.00;1.53;;;-10.40;99.90;;;;;;5051358;28;20973;-71
2022/12/18 04:54:49;;;;;;;1.75;1.65;;;-10.50;99.90;;;;;;5047306;28;20928;-71
2022/12/18 04:57:17;;;;;;;3.47;0.98;;;-10.50;99.90;;;;;;5041404;28;20437;-70
2022/12/18 04:59:44;;;;;;;1.83;1.30;;;-10.50;99.90;;;;;;5043261;28;20431;-70
2022/12/18 05:02:11;;;;;;;1.30;1.20;;;-10.40;99.90;;;;;;5045866;28;20779;-70
2022/12/18 05:04:40;;;;;;;1.10;1.10;;;-10.30;99.90;;;;;;5040481;28;20459;-70
2022/12/18 05:07:07;;;;;;;0.80;0.80;;;-10.30;99.90;;;;;;5030449;28;20929;-70
2022/12/18 05:09:34;;;;;;;1.90;0.60;;;-10.30;99.90;;;;;;5048698;28;20435;-70
2022/12/18 05:12:00;;;;;;;1.70;0.73;;;-10.30;99.90;;;;;;5044668;28;20442;-70
2022/12/18 05:14:30;;;;;;;1.60;1.02;;;-10.40;99.90;;;;;;5051176;28;20468;-70
2022/12/18 05:16:57;;;;;;;1.02;0.70;;;-10.40;99.90;;;;;;5041875;28;20437;-70
2022/12/18 05:19:26;;;;;;;2.33;1.83;;;-10.40;99.90;;;;;;5045272;28;20443;-71
2022/12/18 05:21:59;;;;;;;9.18;2.50;;;-10.50;99.90;;;;;;5048766;28;20441;-70
2022/12/18 05:24:26;;;;;;;2.85;0.75;;;-10.60;99.90;;;;;;5038255;28;20432;-70
2022/12/18 05:26:53;;;;;;;2.42;0.90;;;-10.70;99.90;;;;;;5051154;28;20440;-71
2022/12/18 05:29:23;;;;;;;2.95;1.10;;;-10.80;99.90;;;;;;5025128;28;20516;-70
2022/12/18 05:31:49;;;;;;;1.65;0.90;;;-10.80;99.90;;;;;;5053353;28;20432;-70
2022/12/18 05:34:16;;;;;;;1.10;1.00;;;-10.80;99.90;;;;;;5042856;28;20432;-70
2022/12/18 05:36:43;;;;;;;0.90;0.80;;;-10.80;99.90;;;;;;5043524;28;20433;-70
2022/12/18 05:39:10;;;;;;;5.57;1.97;;;-10.80;99.90;;;;;;5046301;28;20433;-70
2022/12/18 05:41:40;;;;;;;2.50;1.17;;;-10.80;99.90;;;;;;5049942;28;20435;-70
2022/12/18 05:44:07;;;;;;;1.25;1.15;;;-10.90;99.90;;;;;;5031851;28;20429;-70
2022/12/18 05:46:33;;;;;;;2.22;1.25;;;-10.90;99.90;;;;;;5044902;28;20436;-70
2022/12/18 05:49:01;;;;;;;4.30;1.45;;;-10.80;99.90;;;;;;5066247;28;20440;-70
2022/12/18 05:51:28;;;;;;;0.70;0.70;;;-10.80;99.90;;;;;;5044231;28;20426;-70
2022/12/18 05:53:55;;;;;;;0.90;0.88;;;-10.80;99.90;;;;;;5020628;28;20431;-70
2022/12/18 05:56:22;;;;;;;1.50;0.95;;;-10.80;99.90;;;;;;5036236;28;20441;-70
2022/12/18 05:58:52;;;;;;;1.20;1.20;;;-10.70;99.90;;;;;;5044407;28;20433;-71
2022/12/18 06:01:26;;;;;;;1.60;1.23;;;-10.70;99.90;;;;;;5048570;28;20761;-71
2022/12/18 06:03:53;;;;;;;1.50;0.80;;;-10.70;99.90;;;;;;5058723;28;20487;-70
2022/12/18 06:06:25;;;;;;;1.80;1.57;;;-10.70;99.90;;;;;;5047509;28;20909;-71
2022/12/18 06:08:53;;;;;;;0.98;0.98;;;-10.70;99.90;;;;;;5041738;28;20528;-70
2022/12/18 06:11:26;;;;;;;3.80;1.60;;;-10.70;99.90;;;;;;5046110;28;20572;-70
2022/12/18 06:13:54;;;;;;;1.30;0.70;;;-10.80;99.90;;;;;;5050189;28;20435;-70
2022/12/18 06:16:25;;;;;;;2.08;1.33;;;-10.80;99.90;;;;;;5042584;28;20986;-70
2022/12/18 06:18:52;;;;;;;1.77;1.67;;;-10.90;99.90;;;;;;5047346;28;20438;-70
2022/12/18 06:21:20;;;;;;;1.30;1.20;;;-11.00;99.90;;;;;;5036791;28;20430;-70
2022/12/18 06:23:46;;;;;;;2.70;1.73;;;-11.10;99.90;;;;;;5043111;28;20449;-70
2022/12/18 06:26:14;;;;;;;0.82;0.82;;;-11.20;99.90;;;;;;5032879;28;20909;-70
2022/12/18 06:28:41;;;;;;;1.15;1.15;;;-11.20;99.90;;;;;;5046250;28;20446;-70
2022/12/18 06:31:08;;;;;;;4.00;1.15;;;-11.20;99.90;;;;;;5057175;28;20783;-70
2022/12/18 06:33:35;;;;;;;2.35;1.98;;;-11.30;99.90;;;;;;5040337;28;20522;-70
2022/12/18 06:36:09;;;;;;;0.75;0.75;;;-11.40;99.90;;;;;;5046391;28;20516;-70
2022/12/18 06:38:38;;;;;;;0.95;0.90;;;-11.50;99.90;;;;;;5037660;28;20434;-70
2022/12/18 06:41:26;;;;;;;1.38;1.27;;;-11.50;99.90;;;;;;5031730;28;20973;-70
2022/12/18 06:43:53;;;;;;;4.32;1.08;;;-11.60;99.90;;;;;;5028795;28;20845;-70
2022/12/18 06:46:25;;;;;;;1.00;1.00;;;-11.70;99.90;;;;;;5045993;28;20429;-70
2022/12/18 06:48:52;;;;;;;2.47;0.83;;;-11.70;99.90;;;;;;5030684;28;20514;-70
2022/12/18 06:51:23;;;;;;;1.60;1.25;;;-11.70;99.90;;;;;;5053606;28;20444;-70
2022/12/18 06:53:50;;;;;;;1.83;1.33;;;-11.70;99.90;;;;;;5051733;28;20433;-70
2022/12/18 06:56:17;;;;;;;1.27;1.17;;;-11.70;99.90;;;;;;5041261;28;20433;-70
2022/12/18 06:58:47;;;;;;;1.20;1.00;;;-11.80;99.90;;;;;;5041749;28;20428;-70
2022/12/18 07:01:14;;;;;;;5.88;1.38;;;-11.80;99.90;;;;;;5045904;28;20911;-70
2022/12/18 07:03:41;;;;;;;0.90;0.90;;;-11.90;99.90;;;;;;5036406;28;20445;-70
2022/12/18 07:06:19;;;;;;;0.73;0.73;;;-12.00;99.90;;;;;;5041862;28;20460;-70
2022/12/18 07:08:49;;;;;;;0.70;0.70;;;-12.10;99.90;;;;;;5033437;28;20433;-70
2022/12/18 07:11:17;;;;;;;1.10;0.67;;;-12.10;99.90;;;;;;5043549;28;20429;-70
2022/12/18 07:13:45;;;;;;;0.63;0.63;;;-12.20;99.90;;;;;;5042736;28;20460;-70
2022/12/18 07:16:15;;;;;;;0.25;0.25;;;-12.30;99.90;;;;;;5043378;28;20996;-70
2022/12/18 07:18:50;;;;;;;1.50;0.90;;;-12.30;99.90;;;;;;5042173;28;20445;-70
2022/12/18 07:21:20;;;;;;;0.50;0.43;;;-12.40;99.90;;;;;;5040318;28;20433;-70
2022/12/18 07:23:47;;;;;;;3.80;0.98;;;-12.30;99.90;;;;;;5037191;28;20440;-70
2022/12/18 07:26:17;;;;;;;1.15;0.85;;;-12.10;99.90;;;;;;5049793;28;20487;-69
2022/12/18 07:28:43;;;;;;;1.80;0.90;;;-12.10;99.90;;;;;;5040467;28;20419;-69
2022/12/18 07:31:17;;;;;;;0.50;0.50;;;-12.10;99.90;;;;;;5041940;28;20438;-70
2022/12/18 07:33:44;;;;;;;0.75;0.75;;;-12.10;99.90;;;;;;5041069;28;20935;-70
2022/12/18 07:36:11;;;;;;;0.70;0.70;;;-12.10;99.90;;;;;;5042304;28;20469;-70
2022/12/18 07:38:46;;;;;;;2.60;0.75;;;-12.20;99.90;;;;;;5047525;28;20450;-70
2022/12/18 07:41:14;;;;;;;1.60;1.17;;;-12.10;99.90;;;;;;5044451;28;20437;-70
2022/12/18 07:43:41;;;;;;;0.87;0.73;;;-12.00;99.90;;;;;;5046633;28;20796;-70
2022/12/18 07:46:16;;;;;;;0.80;0.80;;;-11.90;99.90;;;;;;5028384;28;20431;-70
2022/12/18 07:48:43;;;;;;;6.25;2.10;;;-11.80;99.90;;;;;;5046838;28;20449;-70
2022/12/18 07:51:16;;;;;;;0.80;0.80;;;-11.60;99.90;;;;;;5050231;28;20424;-70
2022/12/18 07:53:50;;;;;;;2.15;1.02;;;-11.40;99.90;;;;;;5041713;28;20429;-70
2022/12/18 07:56:18;;;;;;;1.33;1.15;;;-11.40;99.90;;;;;;5046809;28;20516;-70
2022/12/18 07:58:55;;;;;;;1.25;0.75;;;-11.30;99.90;;;;;;5048703;28;20427;-70
2022/12/18 08:01:22;;;;;;;1.00;1.00;;;-11.30;99.90;;;;;;5047047;28;20988;-70
2022/12/18 08:03:49;;;;;;;1.40;1.23;;;-11.20;99.90;;;;;;5047550;28;20488;-70
2022/12/18 08:06:19;;;;;;;0.65;0.63;;;-11.20;99.90;;;;;;5056353;28;20429;-70
2022/12/18 08:08:51;;;;;;;2.00;1.23;;;-11.10;99.90;;;;;;5047416;28;20996;-69
2022/12/18 08:11:18;;;;;;;0.95;0.95;;;-11.00;99.90;;;;;;5049006;28;20467;-70
2022/12/18 08:13:45;;;;;;;1.57;0.77;;;-10.90;99.90;;;;;;5039508;28;20447;-70
2022/12/18 08:16:12;;;;;;;2.67;1.40;;;-10.80;99.90;;;;;;5039405;28;20543;-70
2022/12/18 08:18:39;;;;;;;1.50;1.40;;;-10.70;99.90;;;;;;5047755;28;20524;-70
2022/12/18 08:21:13;;;;;;;11.30;2.42;;;-10.60;99.90;;;;;;5033407;28;20446;-70
2022/12/18 08:23:40;;;;;;;7.07;2.55;;;-10.30;99.90;;;;;;5042413;28;20430;-70
2022/12/18 08:26:10;;;;;;;1.63;1.52;;;-10.10;99.90;;;;;;5035173;28;20660;-70
2022/12/18 08:28:37;;;;;;;3.42;1.33;;;-9.90;99.90;;;;;;5041852;28;20439;-69
2022/12/18 08:31:04;;;;;;;3.10;2.00;;;-9.70;99.90;;;;;;5045453;28;20919;-71
2022/12/18 08:33:32;;;;;;;1.83;1.70;;;-9.60;99.90;;;;;;5043038;28;20977;-71
2022/12/18 08:36:00;;;;;;;0.63;0.63;;;-9.40;99.90;;;;;;5044665;28;20947;-71
2022/12/18 08:38:27;;;;;;;1.17;1.17;;;-9.20;99.90;;;;;;5037925;28;20432;-71
2022/12/18 08:41:05;;;;;;;3.30;2.10;;;-9.00;99.90;;;;;;5025485;28;20443;-71
2022/12/18 08:46:19;;;;;;;4.30;1.65;;;-8.80;99.90;;;;;;5039999;28;20423;-70
2022/12/18 08:48:46;;;;;;;6.27;1.90;;;-8.50;99.90;;;;;;5034832;28;20520;-70
2022/12/18 08:51:16;;;;;;;3.25;0.80;;;-8.70;99.90;;;;;;5051216;28;20936;-70
2022/12/18 08:53:44;;;;;;;2.40;1.70;;;-8.50;99.90;;;;;;5037331;28;20435;-70
2022/12/18 08:56:11;;;;;;;2.97;1.52;;;-8.60;99.90;;;;;;5047704;28;20436;-70
2022/12/18 08:58:38;;;;;;;1.77;1.50;;;-8.50;99.90;;;;;;5054018;28;20492;-71
2022/12/18 09:01:08;;;;;;;3.00;1.98;;;-8.20;99.90;;;;;;5058088;28;20427;-71
2022/12/18 09:03:35;;;;;;;2.03;1.65;;;-7.90;99.90;;;;;;5061378;28;20982;-70
2022/12/18 09:06:03;;;;;;;4.82;1.58;;;-7.70;99.90;;;;;;5032704;28;20463;-70
2022/12/18 09:08:30;;;;;;;3.83;2.83;;;-7.60;99.90;;;;;;5054881;28;20980;-70
2022/12/18 09:10:57;;;;;;;5.32;2.72;;;-7.20;99.90;;;;;;5038124;28;20489;-70
2022/12/18 09:13:23;;;;;;;4.55;1.73;;;-7.10;99.90;;;;;;5046863;28;20503;-70
2022/12/18 09:15:54;;;;;;;0.90;0.90;;;-6.80;99.90;;;;;;5056227;28;20455;-70
2022/12/18 09:18:22;;;;;;;2.80;2.42;;;-6.30;99.90;;;;;;5028796;28;20514;-70
2022/12/18 09:20:52;;;;;;;8.90;3.27;;;-6.00;99.90;;;;;;5054840;28;20428;-71
2022/12/18 09:23:20;;;;;;;8.38;3.17;;;-5.60;99.90;;;;;;5050216;28;20433;-71
2022/12/18 09:25:48;;;;;;;4.85;2.10;;;-5.30;99.90;;;;;;5044382;28;20430;-70
2022/12/18 09:28:18;;;;;;;2.90;2.60;;;-5.30;99.90;;;;;;5045969;28;20433;-70
2022/12/18 09:30:47;;;;;;;3.30;1.95;;;-5.50;99.90;;;;;;5049548;28;20435;-70
2022/12/18 09:33:14;;;;;;;3.47;3.10;;;-5.50;99.90;;;;;;5042212;28;20435;-70
2022/12/18 09:35:42;;;;;;;4.43;3.10;;;-5.20;99.90;;;;;;5043035;28;20432;-70
2022/12/18 09:38:14;;;;;;;10.40;3.08;;;-4.90;99.90;;;;;;5054182;28;20939;-70
2022/12/18 09:40:53;;;;;;;6.80;3.43;;;-4.50;99.90;;;;;;5051090;28;20463;-70
2022/12/18 09:43:32;;;;;;;2.90;2.65;;;-4.20;99.90;;;;;;5057952;28;20462;-70
2022/12/18 09:46:07;;;;;;;10.13;3.20;;;-4.00;99.90;;;;;;5034480;28;20596;-70
2022/12/18 09:48:42;;;;;;;4.05;3.22;;;-3.90;99.90;;;;;;5048050;28;20502;-71
2022/12/18 09:51:22;;;;;;;4.45;3.20;;;-3.80;99.90;;;;;;5057838;28;20447;-71
2022/12/18 09:54:03;;;;;;;5.90;3.63;;;-3.70;99.90;;;;;;5043659;28;20465;-70
2022/12/18 09:56:35;;;;;;;4.88;3.10;;;-3.60;99.90;;;;;;5035908;28;20434;-71
2022/12/18 09:59:04;;;;;;;3.40;2.93;;;-3.60;99.90;;;;;;5042619;28;20439;-71
2022/12/18 10:01:34;;;;;;;9.50;3.37;;;-3.40;99.90;;;;;;5045904;28;20446;-71
2022/12/18 10:04:10;;;;;;;3.90;2.30;;;-3.60;99.90;;;;;;5055268;28;20438;-71
2022/12/18 10:06:45;;;;;;;8.47;2.70;;;-3.70;99.90;;;;;;5062815;28;20511;-72
2022/12/18 10:09:31;;;;;;;3.33;2.88;;;-3.70;99.90;;;;;;5059174;28;20429;-71
2022/12/18 10:12:32;;;;;;;3.17;2.22;;;-3.50;99.90;;;;;;5048214;28;20432;-72
2022/12/18 10:15:00;;;;;;;5.43;2.70;;;-3.20;99.90;;;;;;5042652;28;20437;-72
2022/12/18 10:17:50;;;;;;;8.68;3.50;;;-2.90;99.90;;;;;;5037104;28;20434;-72
2022/12/18 10:20:35;;;;;;;6.72;3.60;;;-2.90;99.90;;;;;;5047545;28;20834;-72
2022/12/18 10:23:32;;;;;;;6.43;3.60;;;-2.60;99.90;;;;;;5040551;28;20905;-72
2022/12/18 10:26:05;;;;;;;4.17;2.80;;;-3.20;99.90;;;;;;5050163;28;20444;-72
2022/12/18 10:28:38;;;;;;;4.10;2.13;;;-3.20;99.90;;;;;;5051218;28;20423;-73
2022/12/18 10:31:07;;;;;;;8.17;3.33;;;-3.30;99.90;;;;;;5061032;28;20425;-72
2022/12/18 10:33:34;;;;;;;4.90;3.05;;;-3.20;99.90;;;;;;5053587;28;20961;-72
2022/12/18 10:36:02;;;;;;;4.15;2.25;;;-3.10;99.90;;;;;;5050335;28;20445;-72
2022/12/18 10:38:31;;;;;;;9.20;3.10;;;-3.10;99.90;;;;;;5047683;28;21023;-73
2022/12/18 10:41:09;;;;;;;5.45;3.72;;;-3.30;99.90;;;;;;5041531;28;20434;-73
2022/12/18 10:43:39;;;;;;;3.53;2.35;;;-3.30;99.90;;;;;;5049991;28;20508;-73
2022/12/18 10:46:09;;;;;;;6.13;1.98;;;-3.70;99.90;;;;;;5054965;28;20920;-73
2022/12/18 10:48:47;;;;;;;5.32;3.00;;;-3.70;99.90;;;;;;5053343;28;20519;-73
2022/12/18 10:51:24;;;;;;;2.65;2.45;;;-3.50;99.90;;;;;;5042369;28;20452;-73
2022/12/18 10:53:56;;;;;;;2.95;1.98;;;-3.40;99.90;;;;;;5038960;28;20435;-73
2022/12/18 10:56:25;;;;;;;3.50;2.80;;;-3.40;99.90;;;;;;5033790;28;20500;-73
2022/12/18 10:59:01;;;;;;;4.97;3.30;;;-3.30;99.90;;;;;;5042426;28;20482;-73
2022/12/18 11:01:55;;;;;;;8.80;3.07;;;-3.20;99.90;;;;;;5042595;28;20446;-73
2022/12/18 11:04:29;;;;;;;4.25;3.03;;;-3.00;99.90;;;;;;5039242;28;20429;-72
2022/12/18 11:07:04;;;;;;;6.15;3.17;;;-2.70;99.90;;;;;;5037401;28;20771;-72
2022/12/18 11:09:38;;;;;;;7.20;2.53;;;-2.50;99.90;;;;;;5033293;28;20431;-74
2022/12/18 11:12:18;;;;;;;3.95;2.88;;;-2.10;99.90;;;;;;5043562;28;20432;-72
2022/12/18 11:14:50;;;;;;;5.03;3.35;;;-2.10;99.90;;;;;;5034172;28;20500;-74
2022/12/18 11:17:37;;;;;;;3.15;2.80;;;-2.10;99.90;;;;;;5034859;28;20453;-72
2022/12/18 11:20:22;;;;;;;8.20;3.63;;;-2.10;99.90;;;;;;5049647;28;20433;-72
2022/12/18 11:23:11;;;;;;;8.10;3.15;;;-2.20;99.90;;;;;;5036813;28;20827;-72
2022/12/18 11:25:39;;;;;;;3.15;2.83;;;-1.90;99.90;;;;;;5043398;28;20431;-71
2022/12/18 11:28:25;;;;;;;6.05;2.92;;;-1.70;99.90;;;;;;5026971;28;20429;-71
2022/12/18 11:31:09;;;;;;;6.28;2.58;;;-1.70;99.90;;;;;;5041540;28;20486;-70
2022/12/18 11:33:39;;;;;;;5.72;2.80;;;-1.80;99.90;;;;;;5039395;28;20522;-71
2022/12/18 11:36:28;;;;;;;4.80;2.50;;;-1.80;99.90;;;;;;5038331;28;20468;-70
2022/12/18 11:38:57;;;;;;;9.95;3.20;;;-1.80;99.90;;;;;;5039638;28;20510;-71
2022/12/18 11:44:24;;;;;;;4.40;3.00;;;-1.90;99.90;;;;;;5041112;28;21115;-70
2022/12/18 11:47:09;;;;;;;6.18;3.75;;;-1.80;99.90;;;;;;5042593;28;20427;-72
2022/12/18 11:49:36;;;;;;;3.30;2.35;;;-2.10;99.90;;;;;;5028570;28;20447;-69
2022/12/18 11:52:24;;;;;;;5.63;2.63;;;-2.10;99.90;;;;;;5038073;28;20815;-72
2022/12/18 11:55:01;;;;;;;6.57;3.72;;;-2.10;99.90;;;;;;5031346;28;20438;-71
2022/12/18 11:57:49;;;;;;;4.33;3.07;;;-2.20;99.90;;;;;;5044636;28;20901;-69
2022/12/18 12:00:21;;;;;;;10.80;3.70;;;-2.10;99.90;;;;;;5024214;28;20936;-69
2022/12/18 12:03:03;;;;;;;4.27;2.30;;;-2.10;99.90;;;;;;5036272;28;20431;-69
2022/12/18 12:05:49;;;;;;;3.88;2.60;;;-2.70;99.90;;;;;;5051829;28;20461;-69
2022/12/18 12:08:29;;;;;;;2.40;2.17;;;-2.50;99.90;;;;;;5045307;28;20975;-68
2022/12/18 12:10:55;;;;;;;9.27;3.97;;;-2.20;99.90;;;;;;5026203;28;20440;-69
2022/12/18 12:13:25;;;;;;;4.35;3.53;;;-2.00;99.90;;;;;;5024966;28;20421;-69
2022/12/18 12:16:03;;;;;;;11.80;3.55;;;-2.30;99.90;;;;;;5045873;28;20490;-69
2022/12/18 12:18:55;;;;;;;6.25;3.78;;;-2.20;99.90;;;;;;5044389;28;20439;-68
2022/12/18 12:21:51;;;;;;;3.47;2.67;;;-2.40;99.90;;;;;;5046905;28;20440;-70
2022/12/18 12:24:37;;;;;;;3.53;2.58;;;-2.40;99.90;;;;;;5047803;28;20431;-70
2022/12/18 12:27:24;;;;;;;3.20;2.80;;;-2.60;99.90;;;;;;5046463;28;20804;-71
2022/12/18 12:30:09;;;;;;;6.30;2.25;;;-2.60;99.90;;;;;;5048045;28;20526;-70
2022/12/18 12:32:42;;;;;;;8.88;3.17;;;-2.60;99.90;;;;;;5053957;28;20813;-68
2022/12/18 12:35:50;;;;;;;6.00;2.87;;;-2.50;99.90;;;;;;5034906;28;20547;-68
2022/12/18 12:38:31;;;;;;;4.50;1.75;;;-2.50;99.90;;;;;;5047178;28;20428;-68
2022/12/18 12:41:03;;;;;;;3.80;3.03;;;-2.40;99.90;;;;;;5051288;28;20441;-70
2022/12/18 12:43:42;;;;;;;7.70;3.15;;;-2.50;99.90;;;;;;5051725;28;20438;-70
2022/12/18 12:46:19;;;;;;;3.72;3.13;;;-2.50;99.90;;;;;;5043148;28;20425;-67
2022/12/18 12:48:56;;;;;;;2.67;2.47;;;-2.40;99.90;;;;;;5047988;28;20907;-68
2022/12/18 12:51:29;;;;;;;6.75;2.45;;;-2.20;99.90;;;;;;5042321;28;21002;-70
2022/12/18 12:53:59;;;;;;;6.30;2.50;;;-2.40;99.90;;;;;;5021690;28;20434;-70
2022/12/18 12:56:59;;;;;;;3.22;2.40;;;-2.40;99.90;;;;;;5044182;28;20495;-70
2022/12/18 12:59:51;;;;;;;11.43;3.08;;;-2.50;99.90;;;;;;5039559;28;20433;-70
2022/12/18 13:02:31;;;;;;;7.65;2.50;;;-2.50;99.90;;;;;;5050573;28;20486;-70
2022/12/18 13:05:21;;;;;;;6.13;3.25;;;-2.40;99.90;;;;;;5016936;28;20526;-70
2022/12/18 13:08:11;;;;;;;5.23;2.47;;;-2.70;99.90;;;;;;5016372;28;20429;-70
2022/12/18 13:10:42;;;;;;;3.92;3.05;;;-2.90;99.90;;;;;;5038337;28;20425;-70
2022/12/18 13:13:15;;;;;;;3.33;2.75;;;-3.00;99.90;;;;;;5038936;28;20433;-69
2022/12/18 13:16:02;;;;;;;5.43;2.72;;;-3.10;99.90;;;;;;5038762;28;20472;-70